sensor_id;sensor_type;location;lat;lon;timestamp;temperature;humidity
50067;DHT22;35952;52.524;13.340;2024-03-22T00:00:16;8.80;99.90
50067;DHT22;35952;52.524;13.340;2024-03-22T00:02:42;8.70;99.90
50067;DHT22;35952;52.524;13.340;2024-03-22T00:05:08;8.60;99.90
50067;DHT22;35952;52.524;13.340;2024-03-22T00:07:33;8.40;99.90
50067;DHT22;35952;52.524;13.340;2024-03-22T00:09:58;8.50;99.90
50067;DHT22;35952;52.524;13.340;2024-03-22T00:12:25;8.60;99.90
50067;DHT22;35952;52.524;13.340;2024-03-22T00:14:50;8.70;99.90
50067;DHT22;35952;52.524;13.340;2024-03-22T00:17:20;8.70;99.90
50067;DHT22;35952;52.524;13.340;2024-03-22T00:19:45;8.80;99.90
50067;DHT22;35952;52.524;13.340;2024-03-22T00:22:11;8.80;99.90
50067;DHT22;35952;52.524;13.340;2024-03-22T00:24:36;8.90;99.90
50067;DHT22;35952;52.524;13.340;2024-03-22T00:27:02;8.90;99.90
50067;DHT22;35952;52.524;13.340;2024-03-22T00:29:27;8.90;99.90
50067;DHT22;35952;52.524;13.340;2024-03-22T00:31:53;8.70;99.90
50067;DHT22;35952;52.524;13.340;2024-03-22T00:34:18;8.70;99.90
50067;DHT22;35952;52.524;13.340;2024-03-22T00:36:45;8.70;99.90
50067;DHT22;35952;52.524;13.340;2024-03-22T00:39:11;8.60;99.90
50067;DHT22;35952;52.524;13.340;2024-03-22T00:41:36;8.60;99.90
50067;DHT22;35952;52.524;13.340;2024-03-22T00:44:02;8.60;99.90
50067;DHT22;35952;52.524;13.340;2024-03-22T00:46:27;8.70;99.90
50067;DHT22;35952;52.524;13.340;2024-03-22T00:48:53;8.70;99.90
50067;DHT22;35952;52.524;13.340;2024-03-22T00:51:18;8.80;99.90
50067;DHT22;35952;52.524;13.340;2024-03-22T00:53:44;8.80;99.90
50067;DHT22;35952;52.524;13.340;2024-03-22T00:56:09;8.80;99.90
50067;DHT22;35952;52.524;13.340;2024-03-22T00:58:35;9.00;99.90
50067;DHT22;35952;52.524;13.340;2024-03-22T01:01:00;9.00;99.90
50067;DHT22;35952;52.524;13.340;2024-03-22T01:03:26;8.90;99.90
50067;DHT22;35952;52.524;13.340;2024-03-22T01:05:51;8.90;99.90
50067;DHT22;35952;52.524;13.340;2024-03-22T01:08:17;8.80;99.90
50067;DHT22;35952;52.524;13.340;2024-03-22T01:10:42;8.70;99.90
50067;DHT22;35952;52.524;13.340;2024-03-22T01:13:08;8.60;99.90
50067;DHT22;35952;52.524;13.340;2024-03-22T01:15:34;8.60;99.90
50067;DHT22;35952;52.524;13.340;2024-03-22T01:17:59;8.60;99.90
50067;DHT22;35952;52.524;13.340;2024-03-22T01:20:25;8.50;99.90
50067;DHT22;35952;52.524;13.340;2024-03-22T01:22:50;8.70;99.90
50067;DHT22;35952;52.524;13.340;2024-03-22T01:25:16;8.70;99.90
50067;DHT22;35952;52.524;13.340;2024-03-22T01:27:42;8.60;99.90
50067;DHT22;35952;52.524;13.340;2024-03-22T01:30:07;8.70;99.90
50067;DHT22;35952;52.524;13.340;2024-03-22T01:32:35;8.80;99.90
50067;DHT22;35952;52.524;13.340;2024-03-22T01:35:00;8.90;99.90
50067;DHT22;35952;52.524;13.340;2024-03-22T01:37:26;8.80;99.90
50067;DHT22;35952;52.524;13.340;2024-03-22T01:39:51;8.80;99.90
50067;DHT22;35952;52.524;13.340;2024-03-22T01:42:17;8.70;99.90
50067;DHT22;35952;52.524;13.340;2024-03-22T01:44:42;8.60;99.90
50067;DHT22;35952;52.524;13.340;2024-03-22T01:47:08;8.50;99.90
50067;DHT22;35952;52.524;13.340;2024-03-22T01:49:34;8.70;99.90
50067;DHT22;35952;52.524;13.340;2024-03-22T01:52:00;8.70;99.90
50067;DHT22;35952;52.524;13.340;2024-03-22T01:54:25;8.70;99.90
50067;DHT22;35952;52.524;13.340;2024-03-22T01:56:51;8.50;99.90
50067;DHT22;35952;52.524;13.340;2024-03-22T01:59:17;8.60;99.90
50067;DHT22;35952;52.524;13.340;2024-03-22T02:01:43;8.70;99.90
50067;DHT22;35952;52.524;13.340;2024-03-22T02:04:09;8.70;99.90
50067;DHT22;35952;52.524;13.340;2024-03-22T02:06:35;8.70;99.90
50067;DHT22;35952;52.524;13.340;2024-03-22T02:09:00;8.80;99.90
50067;DHT22;35952;52.524;13.340;2024-03-22T02:11:26;8.80;99.90
50067;DHT22;35952;52.524;13.340;2024-03-22T02:13:52;8.80;99.90
50067;DHT22;35952;52.524;13.340;2024-03-22T02:16:17;8.80;99.90
50067;DHT22;35952;52.524;13.340;2024-03-22T02:18:43;8.80;99.90
50067;DHT22;35952;52.524;13.340;2024-03-22T02:21:09;8.90;99.90
50067;DHT22;35952;52.524;13.340;2024-03-22T02:23:36;8.90;99.90
50067;DHT22;35952;52.524;13.340;2024-03-22T02:26:03;8.90;99.90
50067;DHT22;35952;52.524;13.340;2024-03-22T02:28:29;8.80;99.90
50067;DHT22;35952;52.524;13.340;2024-03-22T02:30:55;8.70;99.90
50067;DHT22;35952;52.524;13.340;2024-03-22T02:33:21;8.80;99.90
50067;DHT22;35952;52.524;13.340;2024-03-22T02:35:47;8.80;99.90
50067;DHT22;35952;52.524;13.340;2024-03-22T02:38:12;8.70;99.90
50067;DHT22;35952;52.524;13.340;2024-03-22T02:40:38;8.60;99.90
50067;DHT22;35952;52.524;13.340;2024-03-22T02:43:04;8.70;99.90
50067;DHT22;35952;52.524;13.340;2024-03-22T02:45:30;8.60;99.90
50067;DHT22;35952;52.524;13.340;2024-03-22T02:47:56;8.60;99.90
50067;DHT22;35952;52.524;13.340;2024-03-22T02:50:21;8.50;99.90
50067;DHT22;35952;52.524;13.340;2024-03-22T02:52:48;8.50;99.90
50067;DHT22;35952;52.524;13.340;2024-03-22T02:55:14;8.50;99.90
50067;DHT22;35952;52.524;13.340;2024-03-22T02:57:39;8.60;99.90
50067;DHT22;35952;52.524;13.340;2024-03-22T03:00:05;8.60;99.90
50067;DHT22;35952;52.524;13.340;2024-03-22T03:02:31;8.80;99.90
50067;DHT22;35952;52.524;13.340;2024-03-22T03:04:57;8.70;99.90
50067;DHT22;35952;52.524;13.340;2024-03-22T03:07:24;8.60;99.90
50067;DHT22;35952;52.524;13.340;2024-03-22T03:09:49;8.40;99.90
50067;DHT22;35952;52.524;13.340;2024-03-22T03:12:14;8.50;99.90
50067;DHT22;35952;52.524;13.340;2024-03-22T03:14:40;8.60;99.90
50067;DHT22;35952;52.524;13.340;2024-03-22T03:17:05;8.60;99.90
50067;DHT22;35952;52.524;13.340;2024-03-22T03:19:31;8.70;99.90
50067;DHT22;35952;52.524;13.340;2024-03-22T03:21:56;8.50;99.90
50067;DHT22;35952;52.524;13.340;2024-03-22T03:24:22;8.50;99.90
50067;DHT22;35952;52.524;13.340;2024-03-22T03:26:47;8.70;99.90
50067;DHT22;35952;52.524;13.340;2024-03-22T03:29:13;8.60;99.90
50067;DHT22;35952;52.524;13.340;2024-03-22T03:31:38;8.60;99.90
50067;DHT22;35952;52.524;13.340;2024-03-22T03:34:04;8.60;99.90
50067;DHT22;35952;52.524;13.340;2024-03-22T03:36:29;8.50;99.90
50067;DHT22;35952;52.524;13.340;2024-03-22T03:38:55;8.60;99.90
50067;DHT22;35952;52.524;13.340;2024-03-22T03:41:20;8.60;99.90
50067;DHT22;35952;52.524;13.340;2024-03-22T03:43:46;8.70;99.90
50067;DHT22;35952;52.524;13.340;2024-03-22T03:46:11;8.60;99.90
50067;DHT22;35952;52.524;13.340;2024-03-22T03:48:37;8.60;99.90
50067;DHT22;35952;52.524;13.340;2024-03-22T03:51:02;8.70;99.90
50067;DHT22;35952;52.524;13.340;2024-03-22T03:53:29;8.60;99.90
50067;DHT22;35952;52.524;13.340;2024-03-22T03:55:55;8.60;99.90
50067;DHT22;35952;52.524;13.340;2024-03-22T03:58:21;8.50;99.90
50067;DHT22;35952;52.524;13.340;2024-03-22T04:00:46;8.50;99.90
50067;DHT22;35952;52.524;13.340;2024-03-22T04:03:11;8.40;99.90
50067;DHT22;35952;52.524;13.340;2024-03-22T04:05:37;8.60;99.90
50067;DHT22;35952;52.524;13.340;2024-03-22T04:08:03;8.60;99.90
50067;DHT22;35952;52.524;13.340;2024-03-22T04:10:28;8.40;99.90
50067;DHT22;35952;52.524;13.340;2024-03-22T04:12:54;8.50;99.90
50067;DHT22;35952;52.524;13.340;2024-03-22T04:15:19;8.40;99.90
50067;DHT22;35952;52.524;13.340;2024-03-22T04:17:45;8.60;99.90
50067;DHT22;35952;52.524;13.340;2024-03-22T04:20:11;8.50;99.90
50067;DHT22;35952;52.524;13.340;2024-03-22T04:22:37;8.50;99.90
50067;DHT22;35952;52.524;13.340;2024-03-22T04:25:02;8.60;99.90
50067;DHT22;35952;52.524;13.340;2024-03-22T04:27:28;8.50;99.90
50067;DHT22;35952;52.524;13.340;2024-03-22T04:29:54;8.50;99.90
50067;DHT22;35952;52.524;13.340;2024-03-22T04:32:19;8.50;99.90
50067;DHT22;35952;52.524;13.340;2024-03-22T04:34:45;8.50;99.90
50067;DHT22;35952;52.524;13.340;2024-03-22T04:37:10;8.50;99.90
50067;DHT22;35952;52.524;13.340;2024-03-22T04:39:40;8.60;99.90
50067;DHT22;35952;52.524;13.340;2024-03-22T04:42:06;8.70;99.90
50067;DHT22;35952;52.524;13.340;2024-03-22T04:44:32;8.90;99.90
50067;DHT22;35952;52.524;13.340;2024-03-22T04:46:58;8.80;99.90
50067;DHT22;35952;52.524;13.340;2024-03-22T04:49:23;8.90;99.90
50067;DHT22;35952;52.524;13.340;2024-03-22T04:51:49;8.90;99.90
50067;DHT22;35952;52.524;13.340;2024-03-22T04:54:14;8.80;99.90
50067;DHT22;35952;52.524;13.340;2024-03-22T04:56:40;8.80;99.90
50067;DHT22;35952;52.524;13.340;2024-03-22T04:59:05;8.80;99.90
50067;DHT22;35952;52.524;13.340;2024-03-22T05:01:31;8.90;99.90
50067;DHT22;35952;52.524;13.340;2024-03-22T05:03:57;8.80;99.90
50067;DHT22;35952;52.524;13.340;2024-03-22T05:06:22;8.80;99.90
50067;DHT22;35952;52.524;13.340;2024-03-22T05:08:48;8.90;99.90
50067;DHT22;35952;52.524;13.340;2024-03-22T05:11:13;8.70;99.90
50067;DHT22;35952;52.524;13.340;2024-03-22T05:13:39;8.70;99.90
50067;DHT22;35952;52.524;13.340;2024-03-22T05:16:06;8.80;99.90
50067;DHT22;35952;52.524;13.340;2024-03-22T05:18:31;8.80;99.90
50067;DHT22;35952;52.524;13.340;2024-03-22T05:20:57;8.90;99.90
50067;DHT22;35952;52.524;13.340;2024-03-22T05:23:22;8.90;99.90
50067;DHT22;35952;52.524;13.340;2024-03-22T05:25:48;8.90;99.90
50067;DHT22;35952;52.524;13.340;2024-03-22T05:28:13;9.00;99.90
50067;DHT22;35952;52.524;13.340;2024-03-22T05:30:39;8.90;99.90
50067;DHT22;35952;52.524;13.340;2024-03-22T05:33:04;9.00;99.90
50067;DHT22;35952;52.524;13.340;2024-03-22T05:35:30;9.00;99.90
50067;DHT22;35952;52.524;13.340;2024-03-22T05:37:56;8.90;99.90
50067;DHT22;35952;52.524;13.340;2024-03-22T05:40:21;9.00;99.90
50067;DHT22;35952;52.524;13.340;2024-03-22T05:42:47;8.80;99.90
50067;DHT22;35952;52.524;13.340;2024-03-22T05:45:12;9.00;99.90
50067;DHT22;35952;52.524;13.340;2024-03-22T05:47:38;9.00;99.90
50067;DHT22;35952;52.524;13.340;2024-03-22T05:50:04;9.10;99.90
50067;DHT22;35952;52.524;13.340;2024-03-22T05:52:32;9.10;99.90
50067;DHT22;35952;52.524;13.340;2024-03-22T05:54:58;9.20;99.90
50067;DHT22;35952;52.524;13.340;2024-03-22T05:57:23;9.00;99.90
50067;DHT22;35952;52.524;13.340;2024-03-22T05:59:49;9.00;99.90
50067;DHT22;35952;52.524;13.340;2024-03-22T06:02:14;9.10;99.90
50067;DHT22;35952;52.524;13.340;2024-03-22T06:04:41;9.20;99.90
50067;DHT22;35952;52.524;13.340;2024-03-22T06:07:06;9.40;99.90
50067;DHT22;35952;52.524;13.340;2024-03-22T06:09:32;9.40;99.90
50067;DHT22;35952;52.524;13.340;2024-03-22T06:12:14;9.20;99.90
50067;DHT22;35952;52.524;13.340;2024-03-22T06:14:41;9.30;99.90
50067;DHT22;35952;52.524;13.340;2024-03-22T06:17:08;9.40;99.90
50067;DHT22;35952;52.524;13.340;2024-03-22T06:19:34;9.40;99.90
50067;DHT22;35952;52.524;13.340;2024-03-22T06:21:59;9.30;99.90
50067;DHT22;35952;52.524;13.340;2024-03-22T06:24:25;9.50;99.90
50067;DHT22;35952;52.524;13.340;2024-03-22T06:26:50;9.30;99.90
50067;DHT22;35952;52.524;13.340;2024-03-22T06:29:16;9.50;99.90
50067;DHT22;35952;52.524;13.340;2024-03-22T06:31:42;9.40;99.90
50067;DHT22;35952;52.524;13.340;2024-03-22T06:34:07;9.40;99.90
50067;DHT22;35952;52.524;13.340;2024-03-22T06:36:33;9.50;99.90
50067;DHT22;35952;52.524;13.340;2024-03-22T06:38:59;9.50;99.90
50067;DHT22;35952;52.524;13.340;2024-03-22T06:41:25;9.50;99.90
50067;DHT22;35952;52.524;13.340;2024-03-22T06:43:53;9.60;99.90
50067;DHT22;35952;52.524;13.340;2024-03-22T06:46:19;9.60;99.90
50067;DHT22;35952;52.524;13.340;2024-03-22T06:48:45;9.70;99.90
50067;DHT22;35952;52.524;13.340;2024-03-22T06:51:11;9.60;99.90
50067;DHT22;35952;52.524;13.340;2024-03-22T06:53:37;9.50;99.90
50067;DHT22;35952;52.524;13.340;2024-03-22T06:56:02;9.70;99.90
50067;DHT22;35952;52.524;13.340;2024-03-22T06:58:29;9.70;99.90
50067;DHT22;35952;52.524;13.340;2024-03-22T07:00:54;9.60;99.90
50067;DHT22;35952;52.524;13.340;2024-03-22T07:03:20;9.60;99.90
50067;DHT22;35952;52.524;13.340;2024-03-22T07:05:47;9.80;99.90
50067;DHT22;35952;52.524;13.340;2024-03-22T07:08:13;9.80;99.90
50067;DHT22;35952;52.524;13.340;2024-03-22T07:10:39;9.70;99.90
50067;DHT22;35952;52.524;13.340;2024-03-22T07:13:05;10.00;99.90
50067;DHT22;35952;52.524;13.340;2024-03-22T07:15:31;10.10;99.90
50067;DHT22;35952;52.524;13.340;2024-03-22T07:17:57;10.20;99.90
50067;DHT22;35952;52.524;13.340;2024-03-22T07:20:23;10.20;99.90
50067;DHT22;35952;52.524;13.340;2024-03-22T07:22:49;9.90;99.90
50067;DHT22;35952;52.524;13.340;2024-03-22T07:25:15;10.10;99.90
50067;DHT22;35952;52.524;13.340;2024-03-22T07:27:40;10.10;99.90
50067;DHT22;35952;52.524;13.340;2024-03-22T07:30:06;10.00;99.90
50067;DHT22;35952;52.524;13.340;2024-03-22T07:32:33;10.10;99.90
50067;DHT22;35952;52.524;13.340;2024-03-22T07:34:58;10.20;99.90
50067;DHT22;35952;52.524;13.340;2024-03-22T07:37:24;10.20;99.90
50067;DHT22;35952;52.524;13.340;2024-03-22T07:39:50;10.10;99.90
50067;DHT22;35952;52.524;13.340;2024-03-22T07:42:16;10.00;99.90
50067;DHT22;35952;52.524;13.340;2024-03-22T07:44:41;10.20;99.90
50067;DHT22;35952;52.524;13.340;2024-03-22T07:47:07;10.20;99.90
50067;DHT22;35952;52.524;13.340;2024-03-22T07:49:32;10.10;99.90
50067;DHT22;35952;52.524;13.340;2024-03-22T07:51:59;10.10;99.90
50067;DHT22;35952;52.524;13.340;2024-03-22T07:54:25;10.30;99.90
50067;DHT22;35952;52.524;13.340;2024-03-22T07:56:50;10.20;99.90
50067;DHT22;35952;52.524;13.340;2024-03-22T07:59:16;10.20;99.90
50067;DHT22;35952;52.524;13.340;2024-03-22T08:01:41;10.20;99.90
50067;DHT22;35952;52.524;13.340;2024-03-22T08:04:07;10.40;99.90
50067;DHT22;35952;52.524;13.340;2024-03-22T08:06:33;10.30;99.90
50067;DHT22;35952;52.524;13.340;2024-03-22T08:08:58;10.30;99.90
50067;DHT22;35952;52.524;13.340;2024-03-22T08:11:24;10.40;99.90
50067;DHT22;35952;52.524;13.340;2024-03-22T08:13:49;10.50;99.90
50067;DHT22;35952;52.524;13.340;2024-03-22T08:16:15;10.80;99.90
50067;DHT22;35952;52.524;13.340;2024-03-22T08:18:40;10.60;99.90
50067;DHT22;35952;52.524;13.340;2024-03-22T08:21:06;10.90;99.90
50067;DHT22;35952;52.524;13.340;2024-03-22T08:23:31;10.90;99.90
50067;DHT22;35952;52.524;13.340;2024-03-22T08:25:57;10.70;99.90
50067;DHT22;35952;52.524;13.340;2024-03-22T08:28:23;10.80;99.90
50067;DHT22;35952;52.524;13.340;2024-03-22T08:30:48;11.10;99.90
50067;DHT22;35952;52.524;13.340;2024-03-22T08:33:14;10.90;99.90
50067;DHT22;35952;52.524;13.340;2024-03-22T08:35:40;10.80;99.90
50067;DHT22;35952;52.524;13.340;2024-03-22T08:38:05;10.70;99.90
50067;DHT22;35952;52.524;13.340;2024-03-22T08:40:39;10.90;99.90
50067;DHT22;35952;52.524;13.340;2024-03-22T08:43:08;11.00;99.90
50067;DHT22;35952;52.524;13.340;2024-03-22T08:45:34;11.20;99.90
50067;DHT22;35952;52.524;13.340;2024-03-22T08:47:59;11.00;99.90
50067;DHT22;35952;52.524;13.340;2024-03-22T08:50:25;11.30;99.90
50067;DHT22;35952;52.524;13.340;2024-03-22T08:52:51;11.60;99.90
50067;DHT22;35952;52.524;13.340;2024-03-22T08:55:16;11.30;99.90
50067;DHT22;35952;52.524;13.340;2024-03-22T08:57:42;11.30;99.90
50067;DHT22;35952;52.524;13.340;2024-03-22T09:00:08;11.60;99.90
50067;DHT22;35952;52.524;13.340;2024-03-22T09:02:34;11.70;99.90
50067;DHT22;35952;52.524;13.340;2024-03-22T09:04:59;11.70;99.90
50067;DHT22;35952;52.524;13.340;2024-03-22T09:07:25;11.80;99.90
50067;DHT22;35952;52.524;13.340;2024-03-22T09:09:51;12.00;99.90
50067;DHT22;35952;52.524;13.340;2024-03-22T09:12:16;12.30;99.90
50067;DHT22;35952;52.524;13.340;2024-03-22T09:14:42;12.30;99.90
50067;DHT22;35952;52.524;13.340;2024-03-22T09:17:07;12.50;99.90
50067;DHT22;35952;52.524;13.340;2024-03-22T09:19:33;12.50;99.90
50067;DHT22;35952;52.524;13.340;2024-03-22T09:21:58;12.60;99.90
50067;DHT22;35952;52.524;13.340;2024-03-22T09:24:24;12.70;99.90
50067;DHT22;35952;52.524;13.340;2024-03-22T09:26:50;12.60;99.90
50067;DHT22;35952;52.524;13.340;2024-03-22T09:29:15;12.30;99.90
50067;DHT22;35952;52.524;13.340;2024-03-22T09:31:41;12.40;99.90
50067;DHT22;35952;52.524;13.340;2024-03-22T09:34:06;12.60;99.90
50067;DHT22;35952;52.524;13.340;2024-03-22T09:36:31;12.80;99.90
50067;DHT22;35952;52.524;13.340;2024-03-22T09:39:01;12.80;99.90
50067;DHT22;35952;52.524;13.340;2024-03-22T09:41:26;13.10;99.90
50067;DHT22;35952;52.524;13.340;2024-03-22T09:43:52;13.00;99.90
50067;DHT22;35952;52.524;13.340;2024-03-22T09:46:19;13.20;99.90
50067;DHT22;35952;52.524;13.340;2024-03-22T09:48:48;13.20;99.90
50067;DHT22;35952;52.524;13.340;2024-03-22T09:51:17;13.10;99.90
50067;DHT22;35952;52.524;13.340;2024-03-22T09:53:44;13.00;99.90
50067;DHT22;35952;52.524;13.340;2024-03-22T09:56:13;12.80;99.90
50067;DHT22;35952;52.524;13.340;2024-03-22T09:58:43;13.00;99.90
50067;DHT22;35952;52.524;13.340;2024-03-22T10:01:08;13.10;99.90
50067;DHT22;35952;52.524;13.340;2024-03-22T10:03:34;13.40;99.90
50067;DHT22;35952;52.524;13.340;2024-03-22T10:06:00;13.20;99.90
50067;DHT22;35952;52.524;13.340;2024-03-22T10:08:25;13.40;99.90
50067;DHT22;35952;52.524;13.340;2024-03-22T10:10:51;13.30;99.90
50067;DHT22;35952;52.524;13.340;2024-03-22T10:13:17;13.20;99.90
50067;DHT22;35952;52.524;13.340;2024-03-22T10:15:42;13.40;99.90
50067;DHT22;35952;52.524;13.340;2024-03-22T10:18:10;13.30;99.90
50067;DHT22;35952;52.524;13.340;2024-03-22T10:20:36;13.40;99.90
50067;DHT22;35952;52.524;13.340;2024-03-22T10:23:01;13.30;99.90
50067;DHT22;35952;52.524;13.340;2024-03-22T10:25:27;13.40;99.90
50067;DHT22;35952;52.524;13.340;2024-03-22T10:27:56;13.40;99.90
50067;DHT22;35952;52.524;13.340;2024-03-22T10:30:23;13.50;99.90
50067;DHT22;35952;52.524;13.340;2024-03-22T10:32:49;13.60;99.90
50067;DHT22;35952;52.524;13.340;2024-03-22T10:35:16;13.60;99.90
50067;DHT22;35952;52.524;13.340;2024-03-22T10:37:42;13.80;99.90
50067;DHT22;35952;52.524;13.340;2024-03-22T10:40:08;13.80;99.90
50067;DHT22;35952;52.524;13.340;2024-03-22T10:42:38;14.30;99.90
50067;DHT22;35952;52.524;13.340;2024-03-22T10:45:05;14.70;99.90
50067;DHT22;35952;52.524;13.340;2024-03-22T10:47:32;15.40;99.90
50067;DHT22;35952;52.524;13.340;2024-03-22T10:50:07;15.90;99.90
50067;DHT22;35952;52.524;13.340;2024-03-22T10:53:01;16.00;99.90
50067;DHT22;35952;52.524;13.340;2024-03-22T10:55:37;16.00;99.90
50067;DHT22;35952;52.524;13.340;2024-03-22T10:58:03;16.50;99.90
50067;DHT22;35952;52.524;13.340;2024-03-22T11:00:33;16.70;99.90
50067;DHT22;35952;52.524;13.340;2024-03-22T11:03:02;16.40;99.90
50067;DHT22;35952;52.524;13.340;2024-03-22T11:05:27;16.10;99.90
50067;DHT22;35952;52.524;13.340;2024-03-22T11:08:29;15.90;99.90
50067;DHT22;35952;52.524;13.340;2024-03-22T11:10:56;15.90;99.90
50067;DHT22;35952;52.524;13.340;2024-03-22T11:13:23;15.70;99.90
50067;DHT22;35952;52.524;13.340;2024-03-22T11:15:49;15.50;99.90
50067;DHT22;35952;52.524;13.340;2024-03-22T11:18:15;14.90;99.90
50067;DHT22;35952;52.524;13.340;2024-03-22T11:20:42;14.60;99.90
50067;DHT22;35952;52.524;13.340;2024-03-22T11:23:07;14.40;99.90
50067;DHT22;35952;52.524;13.340;2024-03-22T11:25:34;14.10;99.90
50067;DHT22;35952;52.524;13.340;2024-03-22T11:28:00;14.00;99.90
50067;DHT22;35952;52.524;13.340;2024-03-22T11:30:28;13.90;99.90
50067;DHT22;35952;52.524;13.340;2024-03-22T11:32:54;13.70;99.90
50067;DHT22;35952;52.524;13.340;2024-03-22T11:35:20;13.70;99.90
50067;DHT22;35952;52.524;13.340;2024-03-22T11:37:45;13.70;99.90
50067;DHT22;35952;52.524;13.340;2024-03-22T11:40:11;13.60;99.90
50067;DHT22;35952;52.524;13.340;2024-03-22T11:42:46;13.50;99.90
50067;DHT22;35952;52.524;13.340;2024-03-22T11:45:14;13.50;99.90
50067;DHT22;35952;52.524;13.340;2024-03-22T11:47:40;13.50;99.90
50067;DHT22;35952;52.524;13.340;2024-03-22T11:50:06;13.50;99.90
50067;DHT22;35952;52.524;13.340;2024-03-22T11:52:31;13.40;99.90
50067;DHT22;35952;52.524;13.340;2024-03-22T11:54:57;13.40;99.90
50067;DHT22;35952;52.524;13.340;2024-03-22T11:57:23;13.40;99.90
50067;DHT22;35952;52.524;13.340;2024-03-22T11:59:50;13.40;99.90
50067;DHT22;35952;52.524;13.340;2024-03-22T12:02:16;13.30;99.90
50067;DHT22;35952;52.524;13.340;2024-03-22T12:04:47;13.40;99.90
50067;DHT22;35952;52.524;13.340;2024-03-22T12:07:14;13.40;99.90
50067;DHT22;35952;52.524;13.340;2024-03-22T12:09:41;13.30;99.90
50067;DHT22;35952;52.524;13.340;2024-03-22T12:12:08;13.30;99.90
50067;DHT22;35952;52.524;13.340;2024-03-22T12:14:34;13.20;99.90
50067;DHT22;35952;52.524;13.340;2024-03-22T12:17:00;13.10;99.90
50067;DHT22;35952;52.524;13.340;2024-03-22T12:19:25;13.20;99.90
50067;DHT22;35952;52.524;13.340;2024-03-22T12:21:51;13.00;99.90
50067;DHT22;35952;52.524;13.340;2024-03-22T12:24:17;13.00;99.90
50067;DHT22;35952;52.524;13.340;2024-03-22T12:26:42;13.10;99.90
50067;DHT22;35952;52.524;13.340;2024-03-22T12:29:08;13.00;99.90
50067;DHT22;35952;52.524;13.340;2024-03-22T12:31:37;13.00;99.90
50067;DHT22;35952;52.524;13.340;2024-03-22T12:34:03;12.90;99.90
50067;DHT22;35952;52.524;13.340;2024-03-22T12:36:28;12.90;99.90
50067;DHT22;35952;52.524;13.340;2024-03-22T12:38:54;12.90;99.90
50067;DHT22;35952;52.524;13.340;2024-03-22T12:41:19;12.80;99.90
50067;DHT22;35952;52.524;13.340;2024-03-22T12:43:45;12.70;99.90
50067;DHT22;35952;52.524;13.340;2024-03-22T12:46:11;12.70;99.90
50067;DHT22;35952;52.524;13.340;2024-03-22T12:48:36;12.70;99.90
50067;DHT22;35952;52.524;13.340;2024-03-22T12:51:02;12.60;99.90
50067;DHT22;35952;52.524;13.340;2024-03-22T12:53:27;12.50;99.90
50067;DHT22;35952;52.524;13.340;2024-03-22T12:55:53;12.40;99.90
50067;DHT22;35952;52.524;13.340;2024-03-22T12:58:18;12.30;99.90
50067;DHT22;35952;52.524;13.340;2024-03-22T13:00:44;12.50;99.90
50067;DHT22;35952;52.524;13.340;2024-03-22T13:03:09;12.30;99.90
50067;DHT22;35952;52.524;13.340;2024-03-22T13:05:37;12.20;99.90
50067;DHT22;35952;52.524;13.340;2024-03-22T13:08:02;12.10;99.90
50067;DHT22;35952;52.524;13.340;2024-03-22T13:10:28;12.10;99.90
50067;DHT22;35952;52.524;13.340;2024-03-22T13:12:53;12.10;99.90
50067;DHT22;35952;52.524;13.340;2024-03-22T13:15:19;12.20;99.90
50067;DHT22;35952;52.524;13.340;2024-03-22T13:17:45;12.20;99.90
50067;DHT22;35952;52.524;13.340;2024-03-22T13:20:10;12.20;99.90
50067;DHT22;35952;52.524;13.340;2024-03-22T13:22:37;12.30;99.90
50067;DHT22;35952;52.524;13.340;2024-03-22T13:25:04;12.10;99.90
50067;DHT22;35952;52.524;13.340;2024-03-22T13:27:33;12.20;99.90
50067;DHT22;35952;52.524;13.340;2024-03-22T13:29:59;12.20;99.90
50067;DHT22;35952;52.524;13.340;2024-03-22T13:32:25;12.10;99.90
50067;DHT22;35952;52.524;13.340;2024-03-22T13:34:50;12.10;99.90
50067;DHT22;35952;52.524;13.340;2024-03-22T13:37:16;12.20;99.90
50067;DHT22;35952;52.524;13.340;2024-03-22T13:39:41;12.20;99.90
50067;DHT22;35952;52.524;13.340;2024-03-22T13:42:07;12.20;99.90
50067;DHT22;35952;52.524;13.340;2024-03-22T13:44:33;12.30;99.90
50067;DHT22;35952;52.524;13.340;2024-03-22T13:46:59;12.50;99.90
50067;DHT22;35952;52.524;13.340;2024-03-22T13:49:24;12.20;99.90
50067;DHT22;35952;52.524;13.340;2024-03-22T13:51:50;12.30;99.90
50067;DHT22;35952;52.524;13.340;2024-03-22T13:54:16;12.50;99.90
50067;DHT22;35952;52.524;13.340;2024-03-22T13:56:42;12.30;99.90
50067;DHT22;35952;52.524;13.340;2024-03-22T13:59:08;12.50;99.90
50067;DHT22;35952;52.524;13.340;2024-03-22T14:01:34;12.60;99.90
50067;DHT22;35952;52.524;13.340;2024-03-22T14:04:01;12.50;99.90
50067;DHT22;35952;52.524;13.340;2024-03-22T14:06:27;12.60;99.90
50067;DHT22;35952;52.524;13.340;2024-03-22T14:08:52;12.30;99.90
50067;DHT22;35952;52.524;13.340;2024-03-22T14:11:20;12.30;99.90
50067;DHT22;35952;52.524;13.340;2024-03-22T14:13:45;12.30;99.90
50067;DHT22;35952;52.524;13.340;2024-03-22T14:16:11;12.50;99.90
50067;DHT22;35952;52.524;13.340;2024-03-22T14:18:36;12.20;99.90
50067;DHT22;35952;52.524;13.340;2024-03-22T14:21:02;12.20;99.90
50067;DHT22;35952;52.524;13.340;2024-03-22T14:23:28;12.40;99.90
50067;DHT22;35952;52.524;13.340;2024-03-22T14:25:54;12.40;99.90
50067;DHT22;35952;52.524;13.340;2024-03-22T14:28:20;12.50;99.90
50067;DHT22;35952;52.524;13.340;2024-03-22T14:30:47;12.30;99.90
50067;DHT22;35952;52.524;13.340;2024-03-22T14:33:12;12.50;99.90
50067;DHT22;35952;52.524;13.340;2024-03-22T14:35:38;12.60;99.90
50067;DHT22;35952;52.524;13.340;2024-03-22T14:38:03;12.70;99.90
50067;DHT22;35952;52.524;13.340;2024-03-22T14:40:29;12.50;99.90
50067;DHT22;35952;52.524;13.340;2024-03-22T14:42:57;12.60;99.90
50067;DHT22;35952;52.524;13.340;2024-03-22T14:45:22;12.60;99.90
50067;DHT22;35952;52.524;13.340;2024-03-22T14:47:47;12.70;99.90
50067;DHT22;35952;52.524;13.340;2024-03-22T14:50:13;12.40;99.90
50067;DHT22;35952;52.524;13.340;2024-03-22T14:52:38;12.40;99.90
50067;DHT22;35952;52.524;13.340;2024-03-22T14:55:05;12.30;99.90
50067;DHT22;35952;52.524;13.340;2024-03-22T14:57:30;12.30;99.90
50067;DHT22;35952;52.524;13.340;2024-03-22T14:59:56;12.40;99.90
50067;DHT22;35952;52.524;13.340;2024-03-22T15:02:21;12.50;99.90
50067;DHT22;35952;52.524;13.340;2024-03-22T15:04:47;12.50;99.90
50067;DHT22;35952;52.524;13.340;2024-03-22T15:07:13;12.60;99.90
50067;DHT22;35952;52.524;13.340;2024-03-22T15:09:40;12.60;99.90
50067;DHT22;35952;52.524;13.340;2024-03-22T15:12:06;12.50;99.90
50067;DHT22;35952;52.524;13.340;2024-03-22T15:14:33;12.40;99.90